Time;durP1;ratioP1;P1;durP2;ratioP2;P2;SDS_P1;SDS_P2;PMS_P1;PMS_P2;Temp;Humidity;BMP_temperature;BMP_pressure;BME280_temperature;BME280_humidity;BME280_pressure;Samples;Min_cycle;Max_cycle;Signal;HPM_P1;HPM_P2
2021/11/02 00:19:37;;;;;;;20.30;15.70;;;;;;;;;;4311370;27;20111;-64
2021/11/02 00:22:14;;;;;;;22.33;16.90;;;;;;;;;;4303321;33;20181;-64
2021/11/02 00:24:56;;;;;;;18.30;15.32;;;;;;;;;;4289004;33;20115;-64
2021/11/02 00:27:24;;;;;;;17.65;15.48;;;;;;;;;;4288889;33;20835;-66
2021/11/02 00:29:49;;;;;;;19.33;14.55;;;;;;;;;;4288765;33;20218;-67
2021/11/02 00:32:15;;;;;;;23.38;15.23;;;;;;;;;;4288702;33;20111;-64
2021/11/02 00:34:41;;;;;;;19.60;15.30;;;;;;;;;;4287073;33;20095;-64
2021/11/02 00:37:07;;;;;;;19.20;15.32;;;;;;;;;;4288974;33;20214;-66
2021/11/02 00:39:33;;;;;;;19.50;15.68;;;;;;;;;;4288889;33;20466;-66
2021/11/02 00:41:59;;;;;;;21.08;15.95;;;;;;;;;;4288750;33;20207;-66
2021/11/02 00:44:25;;;;;;;18.20;16.23;;;;;;;;;;4275244;33;20122;-66
2021/11/02 00:46:52;;;;;;;18.73;16.67;;;;;;;;;;4288723;33;20116;-67
2021/11/02 00:49:18;;;;;;;19.27;16.55;;;;;;;;;;4288774;33;20119;-66
2021/11/02 00:51:45;;;;;;;18.55;16.45;;;;;;;;;;4275459;33;20478;-66
2021/11/02 00:54:11;;;;;;;21.45;17.05;;;;;;;;;;4267705;33;20084;-66
2021/11/02 00:56:37;;;;;;;18.90;16.73;;;;;;;;;;4274367;33;20135;-67
2021/11/02 00:59:03;;;;;;;20.50;18.02;;;;;;;;;;4274031;33;20124;-64
2021/11/02 01:01:28;;;;;;;23.02;17.25;;;;;;;;;;4274315;33;20207;-64
2021/11/02 01:03:54;;;;;;;22.30;16.67;;;;;;;;;;4260985;33;20114;-63
2021/11/02 01:06:20;;;;;;;21.30;16.42;;;;;;;;;;4261136;33;20128;-64
2021/11/02 01:08:46;;;;;;;20.10;17.27;;;;;;;;;;4274522;33;20111;-63
2021/11/02 01:11:13;;;;;;;22.27;16.80;;;;;;;;;;4276272;33;20123;-64
2021/11/02 01:13:39;;;;;;;22.20;16.02;;;;;;;;;;4275016;33;20098;-64
2021/11/02 01:16:04;;;;;;;20.52;15.90;;;;;;;;;;4274755;33;20173;-64
2021/11/02 01:18:30;;;;;;;22.02;17.02;;;;;;;;;;4276070;33;20096;-64
2021/11/02 01:20:57;;;;;;;24.77;16.87;;;;;;;;;;4287859;33;20538;-65
2021/11/02 01:23:23;;;;;;;22.05;16.12;;;;;;;;;;4305067;33;20106;-64
2021/11/02 01:25:49;;;;;;;25.30;15.55;;;;;;;;;;4305041;33;20107;-63
2021/11/02 01:28:15;;;;;;;21.80;16.50;;;;;;;;;;4304970;33;20103;-64
2021/11/02 01:30:41;;;;;;;19.17;15.82;;;;;;;;;;4291703;33;20107;-64
2021/11/02 01:33:07;;;;;;;21.87;17.58;;;;;;;;;;4303465;33;20123;-64
2021/11/02 01:35:33;;;;;;;23.12;16.90;;;;;;;;;;4305153;33;20119;-64
2021/11/02 01:38:01;;;;;;;21.33;18.02;;;;;;;;;;4304923;33;20119;-64
2021/11/02 01:40:27;;;;;;;29.20;18.10;;;;;;;;;;4304796;33;20422;-64
2021/11/02 01:42:53;;;;;;;22.83;16.70;;;;;;;;;;4304811;33;20450;-64
2021/11/02 01:45:19;;;;;;;25.55;18.83;;;;;;;;;;4304735;33;20120;-64
2021/11/02 01:47:46;;;;;;;24.08;19.00;;;;;;;;;;4304870;33;20126;-64
2021/11/02 01:50:13;;;;;;;23.60;18.12;;;;;;;;;;4304638;33;20102;-65
2021/11/02 01:52:39;;;;;;;23.90;17.95;;;;;;;;;;4305117;33;20094;-65
2021/11/02 01:55:05;;;;;;;22.35;17.42;;;;;;;;;;4298628;33;20171;-65
2021/11/02 01:57:31;;;;;;;22.15;17.20;;;;;;;;;;4290502;33;20084;-65
2021/11/02 01:59:57;;;;;;;24.80;18.12;;;;;;;;;;4290397;33;20111;-64
2021/11/02 02:02:36;;;;;;;25.00;17.87;;;;;;;;;;4265280;33;20108;-64
2021/11/02 02:05:07;;;;;;;22.62;17.15;;;;;;;;;;4265370;33;20502;-65
2021/11/02 02:08:11;;;;;;;23.55;17.27;;;;;;;;;;4276820;33;20211;-65
2021/11/02 02:11:01;;;;;;;20.25;16.65;;;;;;;;;;4290260;33;20100;-65
2021/11/02 02:13:54;;;;;;;21.27;16.85;;;;;;;;;;4265562;33;20439;-65
2021/11/02 02:16:34;;;;;;;19.50;17.42;;;;;;;;;;4286471;33;20096;-64
2021/11/02 02:19:21;;;;;;;24.90;18.12;;;;;;;;;;4276410;33;20444;-64
2021/11/02 02:21:54;;;;;;;21.40;17.12;;;;;;;;;;4242171;33;20095;-63
2021/11/02 02:24:42;;;;;;;19.85;16.60;;;;;;;;;;4262395;33;20134;-64
2021/11/02 02:27:23;;;;;;;20.05;16.62;;;;;;;;;;4275636;33;20199;-64
2021/11/02 02:29:49;;;;;;;20.88;17.00;;;;;;;;;;4262546;33;20456;-64
2021/11/02 02:32:18;;;;;;;23.23;17.08;;;;;;;;;;4238657;33;20115;-64
2021/11/02 02:34:50;;;;;;;27.85;18.40;;;;;;;;;;4250874;33;20104;-64
2021/11/02 02:37:17;;;;;;;23.52;17.98;;;;;;;;;;4262412;33;20124;-64
2021/11/02 02:39:44;;;;;;;22.17;17.87;;;;;;;;;;4262229;33;20543;-65
2021/11/02 02:42:10;;;;;;;23.83;18.15;;;;;;;;;;4250658;33;20112;-63
2021/11/02 02:44:36;;;;;;;22.52;17.55;;;;;;;;;;4250521;33;20112;-64
2021/11/02 02:47:02;;;;;;;22.15;18.10;;;;;;;;;;4250419;33;20436;-65
2021/11/02 02:49:28;;;;;;;21.62;17.50;;;;;;;;;;4262011;33;20123;-65
2021/11/02 02:51:54;;;;;;;20.10;17.20;;;;;;;;;;4261980;33;20191;-65
2021/11/02 02:54:22;;;;;;;22.02;17.58;;;;;;;;;;4275331;33;20131;-65
2021/11/02 02:56:48;;;;;;;22.00;16.33;;;;;;;;;;4250799;33;20128;-65
2021/11/02 02:59:14;;;;;;;22.15;16.60;;;;;;;;;;4275282;33;20112;-65
2021/11/02 03:01:40;;;;;;;21.95;17.50;;;;;;;;;;4262047;33;20131;-65
2021/11/02 03:04:07;;;;;;;20.42;16.70;;;;;;;;;;4275234;33;20111;-65
2021/11/02 03:06:36;;;;;;;21.70;17.50;;;;;;;;;;4275277;33;20128;-67
2021/11/02 03:09:04;;;;;;;21.77;16.20;;;;;;;;;;4262068;33;20120;-65
2021/11/02 03:11:30;;;;;;;24.83;16.70;;;;;;;;;;4261940;33;20574;-65
2021/11/02 03:13:57;;;;;;;24.87;17.30;;;;;;;;;;4250271;33;20111;-65
2021/11/02 03:16:52;;;;;;;26.30;17.52;;;;;;;;;;4250500;33;20127;-65
2021/11/02 03:44:11;;;;;;;29.58;17.83;;;;;;;;;;4292472;33;20111;-62
2021/11/02 03:54:46;;;;;;;30.42;18.20;;;;;;;;;;4290293;33;20103;-62
2021/11/02 04:57:58;;;;;;;30.42;18.80;;;;;;;;;;4294453;33;20222;-62
